Time;durP1;ratioP1;P1;durP2;ratioP2;P2;SDS_P1;SDS_P2;PMS_P1;PMS_P2;Temp;Humidity;BMP_temperature;BMP_pressure;BME280_temperature;BME280_humidity;BME280_pressure;Samples;Min_cycle;Max_cycle;Signal;HPM_P1;HPM_P2
2022/08/07 00:01:46;;;;;;;12.25;11.25;;;;;;;22.29;88.37;100268.45;1672341;84;21010;-78
2022/08/07 00:04:13;;;;;;;13.05;11.95;;;;;;;22.27;88.25;100270.08;1635223;86;21035;-77
2022/08/07 00:06:39;;;;;;;12.13;11.12;;;;;;;22.27;88.99;100272.80;1668965;84;21579;-77
2022/08/07 00:09:05;;;;;;;11.60;10.82;;;;;;;22.28;88.58;100269.53;1672494;84;21026;-77
2022/08/07 00:11:32;;;;;;;12.25;11.25;;;;;;;22.23;89.17;100275.74;1669348;84;21031;-77
2022/08/07 00:13:58;;;;;;;12.07;11.12;;;;;;;22.25;89.45;100275.48;1646502;86;22344;-76
2022/08/07 00:16:25;;;;;;;11.88;10.98;;;;;;;22.25;89.48;100272.25;1644451;86;20991;-77
2022/08/07 00:18:51;;;;;;;13.43;12.28;;;;;;;22.20;89.51;100276.27;1658450;86;21098;-78
2022/08/07 00:21:17;;;;;;;12.15;11.08;;;;;;;22.17;89.47;100271.39;1641972;86;21070;-78
2022/08/07 00:23:43;;;;;;;12.68;11.60;;;;;;;22.12;90.00;100275.44;1651284;84;21534;-77
2022/08/07 00:26:11;;;;;;;13.45;12.43;;;;;;;22.12;90.81;100278.16;1668793;84;21092;-77
2022/08/07 00:28:37;;;;;;;13.68;12.58;;;;;;;22.13;90.13;100280.61;1665217;84;21098;-77
2022/08/07 00:31:11;;;;;;;14.28;13.08;;;;;;;22.07;89.67;100279.48;1677050;84;21045;-77
2022/08/07 00:33:39;;;;;;;13.90;12.70;;;;;;;22.02;89.77;100278.09;1637530;86;21106;-77
2022/08/07 00:36:07;;;;;;;12.25;11.45;;;;;;;21.99;90.54;100280.02;1610386;87;21067;-77
2022/08/07 00:38:35;;;;;;;13.78;12.78;;;;;;;21.95;90.38;100276.45;1616567;87;21107;-77
2022/08/07 00:41:05;;;;;;;13.10;11.93;;;;;;;21.91;91.40;100279.44;1636483;86;21021;-75
2022/08/07 00:43:32;;;;;;;14.03;12.93;;;;;;;21.92;92.06;100281.05;1643357;86;21025;-77
2022/08/07 00:46:00;;;;;;;13.58;12.58;;;;;;;21.93;92.25;100284.05;1593958;88;21051;-76
2022/08/07 00:48:27;;;;;;;11.63;10.75;;;;;;;21.97;91.74;100281.08;1588624;88;21088;-76
2022/08/07 00:50:54;;;;;;;12.70;11.75;;;;;;;21.99;91.50;100279.45;1608204;88;21571;-76
2022/08/07 00:53:22;;;;;;;12.37;11.30;;;;;;;22.00;91.65;100277.55;1587092;89;21074;-76
2022/08/07 00:55:50;;;;;;;12.30;11.40;;;;;;;21.99;92.00;100283.53;1585279;88;21114;-78
2022/08/07 00:58:19;;;;;;;11.95;11.15;;;;;;;22.02;92.33;100286.24;1583029;88;21488;-77
2022/08/07 01:00:45;;;;;;;14.18;12.98;;;;;;;22.04;91.93;100294.93;1589599;89;21154;-78
2022/08/07 01:03:12;;;;;;;14.70;13.53;;;;;;;22.05;91.96;100295.22;1626535;86;21047;-77
2022/08/07 01:05:41;;;;;;;12.58;11.78;;;;;;;22.06;91.89;100296.87;1637439;86;20980;-75
2022/08/07 01:08:08;;;;;;;13.03;11.90;;;;;;;22.07;92.30;100299.84;1638042;86;21495;-79
2022/08/07 01:10:34;;;;;;;13.83;12.68;;;;;;;22.13;92.14;100298.25;1636019;86;21079;-76
2022/08/07 01:13:01;;;;;;;14.00;13.00;;;;;;;22.15;92.00;100301.52;1627708;86;21022;-76
2022/08/07 01:15:30;;;;;;;12.65;11.75;;;;;;;22.13;91.20;100298.25;1639623;86;21445;-78
2022/08/07 01:17:57;;;;;;;14.03;12.85;;;;;;;22.02;90.99;100307.44;1640491;86;21140;-77
2022/08/07 01:20:29;;;;;;;13.55;12.35;;;;;;;21.97;93.12;100300.63;1632868;86;21556;-77
2022/08/07 01:22:55;;;;;;;13.13;12.10;;;;;;;21.96;92.65;100301.17;1643816;85;21530;-77
2022/08/07 01:25:23;;;;;;;14.63;13.60;;;;;;;21.97;93.68;100298.72;1659976;85;21563;-80
2022/08/07 01:27:51;;;;;;;14.65;13.50;;;;;;;21.99;92.76;100300.36;1666787;85;21027;-81
2022/08/07 01:30:18;;;;;;;14.65;13.35;;;;;;;21.95;92.32;100304.95;1661043;85;21038;-78
2022/08/07 01:32:44;;;;;;;14.85;13.75;;;;;;;21.90;92.60;100300.84;1641244;85;20998;-76
2022/08/07 01:35:11;;;;;;;11.68;10.93;;;;;;;21.84;92.86;100300.56;1662126;85;21002;-77
2022/08/07 01:37:39;;;;;;;14.35;13.35;;;;;;;21.83;93.95;100297.59;1649488;85;21031;-74
2022/08/07 01:40:09;;;;;;;15.30;14.07;;;;;;;21.86;94.19;100302.47;1656942;85;21166;-78
2022/08/07 01:42:36;;;;;;;12.30;11.48;;;;;;;21.63;93.62;100269.80;1624045;86;21079;-78
2022/08/07 01:45:09;;;;;;;13.08;11.88;;;;;;;21.82;95.62;100295.13;1654582;82;21054;-78
2022/08/07 01:47:37;;;;;;;13.22;12.23;;;;;;;21.83;95.35;100292.16;1622528;86;21130;-77
2022/08/07 01:50:05;;;;;;;13.65;12.75;;;;;;;21.84;95.91;100291.06;1615531;87;21082;-76
2022/08/07 01:52:34;;;;;;;14.80;13.55;;;;;;;21.88;96.31;100293.52;1644551;86;21068;-76
2022/08/07 01:55:03;;;;;;;13.50;12.40;;;;;;;21.93;95.81;100294.09;1622389;86;21128;-76
2022/08/07 01:57:34;;;;;;;12.43;11.53;;;;;;;21.93;94.36;100301.69;1640796;86;21006;-76
2022/08/07 02:00:06;;;;;;;13.62;12.43;;;;;;;21.91;95.18;100301.69;1611509;87;20983;-76
2022/08/07 02:02:41;;;;;;;12.43;11.53;;;;;;;21.92;95.50;100298.69;1639599;86;21073;-74
2022/08/07 02:05:13;;;;;;;13.18;12.13;;;;;;;22.01;95.03;100298.20;1602173;87;21065;-75
2022/08/07 02:07:48;;;;;;;12.93;12.03;;;;;;;22.09;94.57;100293.60;1605559;88;21109;-73
2022/08/07 02:10:20;;;;;;;12.85;11.85;;;;;;;22.10;93.79;100288.47;1647180;86;20978;-77
2022/08/07 02:12:48;;;;;;;14.10;11.63;;;;;;;22.16;92.84;100300.96;1640217;85;21561;-77
2022/08/07 02:15:22;;;;;;;13.00;12.00;;;;;;;22.10;93.21;100300.67;1647103;85;21005;-77
2022/08/07 02:17:53;;;;;;;13.83;12.45;;;;;;;22.06;93.28;100300.39;1655458;85;21127;-76
2022/08/07 02:20:22;;;;;;;12.60;11.45;;;;;;;22.02;93.30;100306.08;1652131;85;21040;-76
2022/08/07 02:22:52;;;;;;;12.73;11.83;;;;;;;21.98;93.25;100303.59;1654967;85;21034;-77
2022/08/07 02:25:20;;;;;;;13.38;12.35;;;;;;;21.97;94.40;100305.50;1631293;87;21054;-76
2022/08/07 02:27:49;;;;;;;12.58;11.70;;;;;;;21.97;93.22;100308.22;1654379;85;21012;-76
2022/08/07 02:30:17;;;;;;;12.30;11.40;;;;;;;21.90;93.62;100301.40;1651925;85;20974;-76
2022/08/07 02:32:44;;;;;;;12.10;11.20;;;;;;;21.84;94.91;100305.98;1654737;85;20951;-76
2022/08/07 02:35:14;;;;;;;13.03;11.95;;;;;;;21.89;96.11;100307.38;1646804;86;21016;-76
2022/08/07 02:37:40;;;;;;;12.60;11.50;;;;;;;21.96;95.44;100303.89;1638065;86;21039;-76
2022/08/07 02:40:09;;;;;;;13.62;12.63;;;;;;;22.00;94.24;100303.33;1639098;86;21487;-76
2022/08/07 02:42:38;;;;;;;14.43;13.22;;;;;;;21.95;93.86;100303.59;1640847;86;21072;-76
2022/08/07 02:45:08;;;;;;;14.60;13.48;;;;;;;21.88;93.25;100309.80;1648605;84;21541;-78
2022/08/07 02:47:34;;;;;;;13.80;12.75;;;;;;;21.78;93.30;100307.05;1652182;85;21073;-77
2022/08/07 02:50:04;;;;;;;13.98;12.88;;;;;;;21.69;93.54;100306.72;1651546;85;21037;-76
2022/08/07 02:52:56;;;;;;;16.42;15.23;;;;;;;21.64;93.89;100309.95;1653270;85;21013;-78
2022/08/07 02:55:25;;;;;;;14.78;13.68;;;;;;;21.60;94.48;100314.27;1657741;84;22084;-78
2022/08/07 02:57:54;;;;;;;13.38;12.40;;;;;;;21.58;95.40;100311.27;1668454;84;21029;-77
2022/08/07 03:00:23;;;;;;;12.65;11.85;;;;;;;21.60;95.93;100312.36;1669098;84;21025;-79
2022/08/07 03:02:51;;;;;;;13.62;12.53;;;;;;;21.78;97.32;100311.12;1643459;84;21151;-77
2022/08/07 03:05:19;;;;;;;13.60;12.37;;;;;;;22.10;96.88;100310.18;1665674;84;20987;-76
2022/08/07 03:07:50;;;;;;;12.30;11.25;;;;;;;22.48;94.79;100313.02;1668244;84;21029;-79
2022/08/07 03:10:19;;;;;;;12.37;11.45;;;;;;;22.81;92.62;100312.80;1668676;84;21050;-79
2022/08/07 03:12:46;;;;;;;11.57;10.80;;;;;;;23.15;90.46;100309.58;1661853;84;20997;-77
2022/08/07 03:15:14;;;;;;;12.65;11.60;;;;;;;23.48;88.32;100311.71;1657615;85;21017;-79
2022/08/07 03:17:42;;;;;;;12.43;11.40;;;;;;;23.86;86.12;100308.09;1658471;85;21049;-79
2022/08/07 03:20:10;;;;;;;12.50;11.60;;;;;;;24.24;83.46;100309.02;1650257;85;21006;-80
2022/08/07 03:22:39;;;;;;;12.82;11.68;;;;;;;24.53;81.68;100307.81;1645993;85;21030;-76
2022/08/07 03:25:07;;;;;;;13.38;12.18;;;;;;;24.80;80.37;100308.70;1658847;85;21505;-77
2022/08/07 03:27:44;;;;;;;13.32;12.13;;;;;;;25.07;79.14;100304.67;1657970;85;21092;-76
2022/08/07 03:30:13;;;;;;;11.97;11.08;;;;;;;25.32;77.64;100309.13;1657634;85;21016;-77
2022/08/07 03:32:43;;;;;;;12.85;11.73;;;;;;;25.53;76.40;100315.19;1659073;85;21019;-77
2022/08/07 03:35:17;;;;;;;13.35;12.07;;;;;;;25.75;75.49;100313.84;1658169;83;21004;-77
2022/08/07 03:37:47;;;;;;;12.85;11.73;;;;;;;26.00;74.43;100310.05;1656733;85;21100;-77
2022/08/07 03:40:14;;;;;;;12.13;11.33;;;;;;;26.30;73.01;100313.49;1658395;85;21064;-75
2022/08/07 03:42:41;;;;;;;10.75;9.95;;;;;;;26.59;71.11;100321.00;1653921;85;21548;-76
2022/08/07 03:45:10;;;;;;;11.80;10.95;;;;;;;26.90;69.63;100317.81;1653297;85;21032;-76
2022/08/07 03:47:37;;;;;;;11.48;10.68;;;;;;;27.24;67.67;100309.02;1658248;85;21016;-76
2022/08/07 03:50:04;;;;;;;12.88;11.65;;;;;;;27.48;66.21;100308.90;1657395;85;21083;-76
2022/08/07 03:52:34;;;;;;;11.15;10.35;;;;;;;27.56;65.70;100314.50;1653196;85;21048;-76
2022/08/07 03:55:04;;;;;;;10.68;9.98;;;;;;;27.62;64.94;100315.77;1649137;85;21023;-77
2022/08/07 03:57:32;;;;;;;12.30;11.30;;;;;;;27.59;64.50;100321.28;1659335;85;21659;-78
2022/08/07 04:00:00;;;;;;;13.03;11.73;;;;;;;27.60;64.67;100317.44;1657766;85;21511;-79
2022/08/07 04:02:27;;;;;;;11.65;10.95;;;;;;;27.76;64.14;100319.31;1655375;85;21544;-79
2022/08/07 04:04:53;;;;;;;12.88;11.90;;;;;;;28.03;62.96;100314.96;1631175;86;21083;-80
2022/08/07 04:07:21;;;;;;;11.43;10.63;;;;;;;28.20;61.21;100318.44;1656870;85;21120;-80
2022/08/07 04:09:49;;;;;;;12.37;11.43;;;;;;;28.08;61.39;100323.89;1658779;86;21003;-79
2022/08/07 04:12:18;;;;;;;11.45;10.60;;;;;;;28.05;61.25;100323.15;1659492;84;21484;-77
2022/08/07 04:14:46;;;;;;;12.00;11.03;;;;;;;28.11;60.99;100321.91;1657986;85;21050;-73
2022/08/07 04:17:13;;;;;;;11.97;11.08;;;;;;;28.14;60.55;100319.94;1657065;85;21056;-74
2022/08/07 04:19:40;;;;;;;11.70;10.82;;;;;;;27.90;60.61;100287.86;1658046;85;20953;-76
2022/08/07 04:22:09;;;;;;;12.00;11.20;;;;;;;28.12;60.56;100324.92;1658502;84;21111;-75
2022/08/07 04:24:38;;;;;;;12.20;11.30;;;;;;;28.14;60.97;100327.33;1659472;85;21025;-73
2022/08/07 04:27:04;;;;;;;11.12;10.35;;;;;;;28.19;61.06;100320.95;1658770;85;21571;-77
2022/08/07 04:29:33;;;;;;;11.95;10.88;;;;;;;28.27;60.82;100322.95;1657990;85;21064;-80
2022/08/07 04:32:01;;;;;;;11.30;10.25;;;;;;;28.31;60.63;100317.09;1658800;85;22313;-73
2022/08/07 04:34:29;;;;;;;11.38;10.45;;;;;;;28.41;60.64;100322.37;1656463;83;21143;-74
2022/08/07 04:36:56;;;;;;;11.20;10.35;;;;;;;28.43;60.56;100322.06;1663190;85;21144;-74
2022/08/07 04:39:22;;;;;;;10.72;10.03;;;;;;;28.51;60.80;100319.95;1659027;85;21063;-75
2022/08/07 04:41:49;;;;;;;10.50;9.60;;;;;;;28.70;60.41;100324.73;1659797;85;21532;-75
2022/08/07 04:44:15;;;;;;;10.63;9.73;;;;;;;28.86;59.96;100322.45;1658533;84;20997;-76
2022/08/07 04:47:08;;;;;;;10.55;9.75;;;;;;;29.05;59.64;100321.45;1670476;84;21012;-75
2022/08/07 04:49:42;;;;;;;9.55;8.95;;;;;;;29.28;59.08;100321.69;1668799;84;21021;-76
2022/08/07 04:52:35;;;;;;;10.43;9.43;;;;;;;29.47;58.34;100318.71;1671172;84;21054;-76
2022/08/07 04:55:13;;;;;;;10.28;9.23;;;;;;;29.66;57.86;100323.16;1661888;85;20982;-79
2022/08/07 04:58:06;;;;;;;9.50;8.70;;;;;;;29.69;57.41;100320.59;1668470;84;21509;-77
2022/08/07 05:00:51;;;;;;;10.58;9.68;;;;;;;29.76;57.24;100327.58;1666144;84;21540;-75
2022/08/07 05:03:48;;;;;;;8.23;7.72;;;;;;;29.85;57.21;100333.92;1663002;85;20994;-75
2022/08/07 05:06:27;;;;;;;8.58;8.08;;;;;;;30.14;56.24;100329.78;1665508;85;21018;-75
2022/08/07 05:09:13;;;;;;;8.28;7.53;;;;;;;30.49;54.76;100335.37;1664938;85;20993;-75
2022/08/07 05:11:46;;;;;;;9.40;8.70;;;;;;;30.68;53.46;100334.48;1667982;85;21015;-74
2022/08/07 05:14:22;;;;;;;7.15;6.85;;;;;;;30.71;53.01;100339.91;1661068;85;21018;-74
2022/08/07 05:16:53;;;;;;;8.20;7.53;;;;;;;30.75;52.71;100340.30;1664541;84;21048;-76
2022/08/07 05:19:24;;;;;;;8.20;7.60;;;;;;;30.82;52.38;100339.25;1655606;85;21061;-74
2022/08/07 05:21:55;;;;;;;6.65;6.25;;;;;;;30.92;52.42;100339.52;1674431;85;21133;-72
2022/08/07 05:24:24;;;;;;;5.53;5.22;;;;;;;31.12;50.93;100335.28;1662707;85;21025;-75
2022/08/07 05:26:56;;;;;;;6.25;5.60;;;;;;;31.08;49.78;100338.45;1659444;85;21689;-74
2022/08/07 05:29:25;;;;;;;5.75;5.30;;;;;;;30.96;49.84;100339.67;1665309;85;21018;-74
2022/08/07 05:31:53;;;;;;;9.55;8.85;;;;;;;30.93;49.85;100345.27;1663896;85;21117;-76
2022/08/07 05:34:22;;;;;;;6.17;5.87;;;;;;;31.00;49.88;100342.81;1656702;85;21142;-73
2022/08/07 05:36:51;;;;;;;5.10;4.90;;;;;;;31.14;49.20;100341.84;1658176;85;21003;-70
2022/08/07 05:39:23;;;;;;;4.53;4.28;;;;;;;31.27;48.87;100338.63;1653108;85;21041;-71
2022/08/07 05:41:51;;;;;;;4.75;4.45;;;;;;;31.34;48.25;100339.74;1652402;85;22210;-75
2022/08/07 05:44:20;;;;;;;5.55;5.00;;;;;;;31.40;47.66;100342.58;1658837;84;21049;-73
2022/08/07 05:46:49;;;;;;;5.72;4.70;;;;;;;31.31;47.81;100347.30;1660369;84;21136;-74
2022/08/07 05:49:17;;;;;;;5.62;4.55;;;;;;;31.16;48.84;100345.08;1659146;84;21556;-73
2022/08/07 05:51:46;;;;;;;4.47;4.28;;;;;;;31.10;48.85;100346.36;1639234;86;21064;-74
2022/08/07 05:54:16;;;;;;;5.08;4.17;;;;;;;31.07;48.43;100342.33;1663617;84;21096;-73
2022/08/07 05:56:43;;;;;;;5.00;4.70;;;;;;;30.99;49.04;100342.59;1644078;86;21601;-74
2022/08/07 05:59:17;;;;;;;4.75;4.45;;;;;;;30.99;49.14;100341.21;1664967;84;21075;-73
2022/08/07 06:01:46;;;;;;;4.30;4.10;;;;;;;30.98;49.47;100345.66;1664602;86;21514;-73
2022/08/07 06:04:16;;;;;;;6.22;5.03;;;;;;;30.97;49.14;100349.56;1667892;84;21076;-71
2022/08/07 06:06:43;;;;;;;4.15;3.95;;;;;;;30.90;48.89;100352.80;1655684;84;21564;-70
2022/08/07 06:09:10;;;;;;;8.78;5.15;;;;;;;30.81;50.10;100350.00;1657108;84;21149;-72
2022/08/07 06:11:40;;;;;;;5.08;4.78;;;;;;;30.84;49.73;100356.24;1658866;84;21122;-74
2022/08/07 06:14:07;;;;;;;4.92;4.70;;;;;;;30.78;50.01;100354.80;1636981;85;20990;-75
2022/08/07 06:16:34;;;;;;;5.35;5.05;;;;;;;30.78;49.97;100357.55;1647391;85;21034;-73
2022/08/07 06:19:04;;;;;;;4.78;4.47;;;;;;;30.79;50.13;100354.22;1657844;85;21092;-73
2022/08/07 06:21:31;;;;;;;7.87;7.08;;;;;;;30.68;50.89;100358.44;1654712;85;21157;-74
2022/08/07 06:23:58;;;;;;;6.80;6.30;;;;;;;30.61;51.29;100358.90;1658872;85;21025;-73
2022/08/07 06:26:25;;;;;;;6.53;6.12;;;;;;;30.64;52.11;100361.02;1656608;85;20982;-74
2022/08/07 06:28:58;;;;;;;6.55;6.05;;;;;;;30.65;51.83;100362.65;1659004;85;21065;-71
2022/08/07 06:31:25;;;;;;;7.90;6.80;;;;;;;30.63;52.15;100358.04;1653736;85;21046;-73
2022/08/07 06:33:53;;;;;;;7.53;5.95;;;;;;;30.84;51.08;100364.50;1666286;84;21439;-73
2022/08/07 06:36:19;;;;;;;5.85;5.55;;;;;;;30.79;50.82;100361.91;1685325;84;21065;-74
2022/08/07 06:38:50;;;;;;;5.17;4.92;;;;;;;30.78;51.44;100360.84;1681149;84;21062;-73
2022/08/07 06:41:42;;;;;;;6.33;5.92;;;;;;;30.75;52.07;100365.64;1684365;84;21025;-73
2022/08/07 06:44:12;;;;;;;6.65;6.15;;;;;;;30.79;52.48;100367.41;1684404;83;21026;-72
2022/08/07 06:46:40;;;;;;;5.60;5.28;;;;;;;30.81;51.56;100358.26;1685608;84;21053;-74
2022/08/07 06:49:06;;;;;;;6.62;6.12;;;;;;;30.76;52.54;100359.82;1683558;84;21002;-70
2022/08/07 06:51:38;;;;;;;7.00;6.28;;;;;;;30.81;52.19;100358.26;1680499;84;21580;-73
2022/08/07 06:54:08;;;;;;;8.10;6.55;;;;;;;30.79;52.32;100353.66;1678605;84;21271;-74
2022/08/07 06:56:39;;;;;;;6.05;5.75;;;;;;;30.84;52.39;100363.13;1683969;83;21149;-72
2022/08/07 06:59:19;;;;;;;5.92;5.42;;;;;;;31.00;51.32;100356.58;1678404;84;21006;-73
2022/08/07 07:01:49;;;;;;;5.70;5.35;;;;;;;31.12;50.33;100355.93;1680545;84;21565;-73
2022/08/07 07:04:16;;;;;;;4.83;4.28;;;;;;;31.03;49.75;100356.51;1678497;84;21367;-73
2022/08/07 07:06:45;;;;;;;5.75;5.35;;;;;;;31.10;50.25;100355.45;1683502;84;21117;-74
2022/08/07 07:09:25;;;;;;;4.92;4.62;;;;;;;31.14;50.22;100350.10;1684651;84;21097;-73
2022/08/07 07:12:25;;;;;;;5.87;5.22;;;;;;;31.06;50.09;100357.21;1683945;83;21045;-76
2022/08/07 07:15:11;;;;;;;5.17;4.97;;;;;;;31.14;50.50;100353.66;1682208;84;21029;-74
2022/08/07 07:17:56;;;;;;;5.40;5.03;;;;;;;31.45;50.22;100352.59;1681832;84;21049;-73
2022/08/07 07:20:30;;;;;;;5.62;5.33;;;;;;;31.46;49.98;100356.15;1680400;84;21759;-74
2022/08/07 07:22:58;;;;;;;5.40;5.05;;;;;;;31.60;49.24;100356.80;1682558;84;21040;-77
2022/08/07 07:25:25;;;;;;;5.20;4.70;;;;;;;31.67;48.50;100359.05;1669839;84;21053;-76
2022/08/07 07:28:03;;;;;;;4.97;4.58;;;;;;;31.39;48.82;100363.56;1679601;84;21060;-71
2022/08/07 07:30:37;;;;;;;6.47;4.62;;;;;;;31.05;49.79;100368.00;1672588;84;21490;-74
2022/08/07 07:33:05;;;;;;;5.37;5.03;;;;;;;30.77;50.74;100366.92;1685571;83;20950;-76
2022/08/07 07:35:34;;;;;;;5.72;5.33;;;;;;;30.64;50.94;100375.57;1685699;84;21109;-73
2022/08/07 07:38:02;;;;;;;6.97;6.35;;;;;;;30.64;51.48;100368.70;1685010;84;22221;-74
2022/08/07 07:40:31;;;;;;;6.87;6.53;;;;;;;30.63;55.21;100369.84;1683582;84;21530;-72
2022/08/07 07:43:00;;;;;;;6.65;6.25;;;;;;;30.54;56.26;100375.91;1682649;84;21053;-70
2022/08/07 07:45:29;;;;;;;6.83;6.33;;;;;;;30.43;57.14;100374.02;1682512;84;21026;-69
2022/08/07 07:47:57;;;;;;;7.80;7.15;;;;;;;30.28;57.62;100370.33;1682757;84;21105;-69
2022/08/07 07:50:26;;;;;;;7.22;6.75;;;;;;;30.16;58.04;100369.58;1684023;84;21053;-69
2022/08/07 07:52:56;;;;;;;7.65;7.25;;;;;;;30.09;58.16;100365.91;1686755;84;21082;-70
2022/08/07 07:55:26;;;;;;;7.97;7.22;;;;;;;30.01;59.32;100367.28;1687195;84;21069;-70
2022/08/07 07:57:55;;;;;;;7.80;7.17;;;;;;;30.00;59.61;100368.39;1678691;84;21032;-69
2022/08/07 08:00:25;;;;;;;8.53;7.95;;;;;;;29.98;58.73;100367.33;1660523;84;21085;-70
2022/08/07 08:02:55;;;;;;;7.08;6.47;;;;;;;29.99;58.12;100364.84;1682515;84;21041;-68
2022/08/07 08:05:23;;;;;;;6.37;6.05;;;;;;;30.01;57.95;100371.41;1683139;84;21621;-69
2022/08/07 08:07:50;;;;;;;7.28;6.83;;;;;;;29.92;57.28;100371.94;1684834;84;21570;-68
2022/08/07 08:10:18;;;;;;;6.15;5.87;;;;;;;29.83;57.59;100369.94;1685090;84;21006;-69
2022/08/07 08:12:46;;;;;;;6.42;6.08;;;;;;;29.84;58.26;100366.08;1685037;83;21099;-71
2022/08/07 08:15:12;;;;;;;7.40;6.95;;;;;;;29.85;57.76;100370.44;1680991;84;21010;-69
2022/08/07 08:20:34;;;;;;;7.45;6.60;;;;;;;29.87;57.49;100371.49;1784713;78;22930;-69
2022/08/07 08:27:03;;;;;;;7.20;6.70;;;;;;;29.88;58.29;100373.13;1701217;83;21261;-70
2022/08/07 08:28:41;;;;;;;7.15;6.75;;;;;;;29.96;57.26;100359.97;1697690;83;21020;-70
2022/08/07 08:31:13;;;;;;;6.67;6.08;;;;;;;30.01;57.80;100376.33;1704151;83;21032;-71
2022/08/07 08:33:41;;;;;;;6.92;6.53;;;;;;;30.05;57.26;100364.13;1691720;80;21048;-70
2022/08/07 08:36:10;;;;;;;6.85;6.37;;;;;;;30.08;56.38;100368.97;1683401;83;20997;-70
2022/08/07 08:38:41;;;;;;;7.90;7.12;;;;;;;30.03;57.04;100363.07;1606162;87;21101;-70
2022/08/07 08:41:27;;;;;;;6.78;6.30;;;;;;;30.04;56.75;100366.63;1624794;87;21605;-73
2022/08/07 08:44:02;;;;;;;6.60;5.92;;;;;;;30.01;56.55;100352.97;1635506;86;21006;-76
2022/08/07 08:46:39;;;;;;;6.50;5.95;;;;;;;29.95;57.27;100355.63;1604472;87;21729;-74
2022/08/07 08:49:37;;;;;;;6.37;5.97;;;;;;;29.96;56.78;100348.18;1640390;86;21069;-74
2022/08/07 08:52:09;;;;;;;5.35;4.95;;;;;;;30.03;56.75;100347.95;1636557;86;22222;-77
2022/08/07 08:54:46;;;;;;;5.22;4.75;;;;;;;30.07;54.70;100344.02;1636587;86;21147;-76
2022/08/07 08:57:18;;;;;;;4.53;4.22;;;;;;;30.16;54.75;100346.77;1643287;86;21037;-75
2022/08/07 08:59:58;;;;;;;5.05;4.20;;;;;;;30.24;53.31;100347.36;1642228;86;21073;-79
2022/08/07 09:02:45;;;;;;;6.47;4.62;;;;;;;30.21;52.78;100343.87;1643334;86;21037;-76
2022/08/07 09:05:33;;;;;;;5.03;4.72;;;;;;;30.04;53.30;100332.27;1643502;86;21081;-83
2022/08/07 09:08:49;;;;;;;4.62;4.40;;;;;;;30.01;52.75;100343.92;1644375;86;21081;-77
2022/08/07 09:11:37;;;;;;;6.58;4.58;;;;;;;29.91;52.79;100331.83;1633765;86;21349;-78
2022/08/07 09:14:29;;;;;;;4.08;3.83;;;;;;;29.86;52.69;100324.56;1605191;88;21079;-76
2022/08/07 09:17:18;;;;;;;5.90;5.35;;;;;;;29.85;52.36;100327.05;1633289;86;21561;-77
2022/08/07 09:19:59;;;;;;;4.20;4.00;;;;;;;29.79;52.35;100324.20;1634638;86;21145;-78
2022/08/07 09:23:04;;;;;;;4.55;4.35;;;;;;;29.77;52.12;100320.97;1555296;87;21075;-73
2022/08/07 09:26:10;;;;;;;4.22;3.98;;;;;;;29.59;52.32;100291.22;1599705;88;21595;-74
2022/08/07 09:28:43;;;;;;;4.22;3.83;;;;;;;29.80;52.57;100326.64;1612200;88;21050;-74
2022/08/07 09:31:42;;;;;;;4.53;4.25;;;;;;;29.84;52.27;100337.80;1603985;88;21159;-79
2022/08/07 09:34:24;;;;;;;4.60;4.40;;;;;;;29.92;52.50;100340.34;1655385;84;21010;-79
2022/08/07 09:37:30;;;;;;;4.22;3.83;;;;;;;29.98;51.61;100340.42;1712261;83;21019;-79
2022/08/07 09:40:36;;;;;;;5.15;4.62;;;;;;;30.01;51.58;100332.36;1637255;85;21070;-77
2022/08/07 09:43:32;;;;;;;5.47;4.83;;;;;;;30.06;51.45;100322.59;1658119;84;21126;-80
2022/08/07 09:46:36;;;;;;;4.80;4.40;;;;;;;30.06;51.28;100328.64;1633965;85;21024;-76
2022/08/07 09:49:46;;;;;;;4.90;4.60;;;;;;;30.05;51.95;100334.70;1637067;87;21129;-80
2022/08/07 09:52:49;;;;;;;4.05;3.85;;;;;;;30.03;51.71;100334.22;1623440;87;21100;-79
2022/08/07 09:55:27;;;;;;;3.52;3.35;;;;;;;30.04;51.34;100344.06;1616885;86;21044;-81
2022/08/07 09:58:22;;;;;;;3.35;3.20;;;;;;;30.02;49.97;100347.70;1652881;86;21023;-77
2022/08/07 10:01:02;;;;;;;3.37;1.77;;;;;;;30.01;49.08;100362.59;1660080;84;22042;-76
2022/08/07 10:03:46;;;;;;;2.15;2.02;;;;;;;29.90;46.85;100351.64;1656792;86;20991;-75
2022/08/07 10:06:24;;;;;;;1.90;1.82;;;;;;;29.71;47.07;100354.61;1670198;86;21499;-79
2022/08/07 10:08:59;;;;;;;1.85;1.77;;;;;;;29.48;46.68;100354.67;1668179;85;21054;-74
2022/08/07 10:11:54;;;;;;;2.85;2.62;;;;;;;29.16;45.19;100342.05;1663263;84;21021;-75
2022/08/07 10:14:57;;;;;;;3.30;2.00;;;;;;;28.84;46.26;100350.75;1667056;86;21544;-75
2022/08/07 10:17:35;;;;;;;3.40;2.17;;;;;;;28.56;47.46;100361.54;1653858;85;21101;-81
2022/08/07 10:20:21;;;;;;;1.52;1.42;;;;;;;28.35;47.57;100362.78;1658140;84;21126;-81
2022/08/07 10:23:38;;;;;;;1.75;1.65;;;;;;;28.21;47.50;100347.48;1652616;84;21039;-81
2022/08/07 10:26:22;;;;;;;2.08;1.87;;;;;;;28.15;47.46;100351.69;1670553;86;21020;-80
2022/08/07 10:29:27;;;;;;;2.25;2.10;;;;;;;28.15;47.83;100352.25;1655822;84;21074;-74
2022/08/07 10:32:35;;;;;;;2.87;2.10;;;;;;;28.16;49.13;100352.49;1646637;84;20995;-83
2022/08/07 10:35:20;;;;;;;2.83;2.00;;;;;;;28.12;49.77;100353.69;1657011;86;21109;-82
2022/08/07 10:38:12;;;;;;;6.83;2.45;;;;;;;28.07;50.37;100351.61;1649943;84;21081;-83
2022/08/07 10:40:53;;;;;;;3.02;1.98;;;;;;;28.00;50.83;100341.05;1653120;84;21062;-80
2022/08/07 10:43:30;;;;;;;8.60;2.60;;;;;;;27.96;51.38;100338.67;1662309;84;20994;-83
2022/08/07 10:46:14;;;;;;;2.47;2.27;;;;;;;27.91;51.75;100334.66;1657247;83;21138;-80
2022/08/07 10:49:12;;;;;;;2.92;2.70;;;;;;;27.90;52.00;100346.75;1645315;85;22315;-81
2022/08/07 10:52:00;;;;;;;3.77;3.02;;;;;;;27.88;52.73;100354.43;1628254;86;21077;-82
2022/08/07 10:55:10;;;;;;;3.15;2.95;;;;;;;27.73;52.45;100339.91;1585885;86;21062;-81
2022/08/07 10:58:12;;;;;;;3.80;3.60;;;;;;;27.61;52.40;100332.73;1637533;86;21597;-81
2022/08/07 11:01:06;;;;;;;3.08;2.83;;;;;;;27.55;52.44;100334.76;1648632;84;20993;-81
2022/08/07 11:03:47;;;;;;;4.10;3.15;;;;;;;27.49;52.86;100333.23;1629213;84;21138;-81
2022/08/07 11:06:39;;;;;;;2.20;1.77;;;;;;;27.32;52.97;100315.22;1683529;84;21509;-83
2022/08/07 11:09:25;;;;;;;2.33;2.10;;;;;;;27.19;51.01;100309.94;1678580;84;21086;-81
2022/08/07 11:12:07;;;;;;;2.40;2.30;;;;;;;27.16;50.35;100299.05;1682612;84;21036;-76
2022/08/07 11:14:48;;;;;;;3.08;2.90;;;;;;;27.24;49.84;100303.02;1670436;84;21057;-79
2022/08/07 11:17:35;;;;;;;3.20;3.00;;;;;;;27.35;51.06;100311.33;1657876;84;21124;-76
2022/08/07 11:20:17;;;;;;;3.00;2.72;;;;;;;27.46;51.19;100314.67;1678442;84;21082;-79
2022/08/07 11:23:21;;;;;;;3.35;2.60;;;;;;;27.55;51.89;100317.53;1680041;82;21619;-80
2022/08/07 11:26:15;;;;;;;3.70;3.42;;;;;;;27.62;52.50;100309.73;1677310;84;21090;-79
2022/08/07 11:29:02;;;;;;;3.42;3.25;;;;;;;27.66;52.76;100297.05;1669365;84;21547;-80
2022/08/07 11:31:46;;;;;;;3.30;3.02;;;;;;;27.70;53.07;100281.64;1643583;84;21376;-78
2022/08/07 11:34:30;;;;;;;3.85;2.87;;;;;;;27.75;52.81;100276.06;1681704;84;21104;-79
2022/08/07 11:37:21;;;;;;;6.45;2.50;;;;;;;27.76;52.21;100282.34;1673840;84;21097;-82
2022/08/07 11:40:35;;;;;;;3.17;3.08;;;;;;;27.73;52.18;100291.98;1674993;84;21029;-78
2022/08/07 11:43:13;;;;;;;3.47;3.37;;;;;;;27.73;53.41;100301.58;1668934;84;21502;-79
2022/08/07 11:46:10;;;;;;;4.03;3.72;;;;;;;27.70;53.53;100295.33;1664027;84;21731;-84
2022/08/07 11:48:57;;;;;;;3.80;3.60;;;;;;;27.68;53.76;100301.66;1594405;87;21086;-78
2022/08/07 11:51:52;;;;;;;3.87;3.67;;;;;;;27.64;53.93;100297.92;1625982;86;21495;-75
2022/08/07 11:54:58;;;;;;;3.58;3.37;;;;;;;27.33;53.88;100257.99;1630099;86;21042;-74
2022/08/07 11:57:40;;;;;;;3.95;3.75;;;;;;;27.58;54.20;100294.47;1673894;83;21537;-81
2022/08/07 12:00:17;;;;;;;4.35;4.15;;;;;;;27.53;54.60;100299.23;1683721;83;21564;-77
2022/08/07 12:03:24;;;;;;;4.00;3.67;;;;;;;27.48;54.60;100296.58;1690715;83;20962;-81